sensor_id;sensor_type;location;lat;lon;timestamp;pressure;altitude;pressure_sealevel;temperature;humidity
9421;BME280;4749;51.398;5.466;2023-02-08T00:01:38;103679.44;;;-0.61;100.00
9421;BME280;4749;51.398;5.466;2023-02-08T00:04:06;103677.63;;;-0.62;100.00
9421;BME280;4749;51.398;5.466;2023-02-08T00:06:36;103676.72;;;-0.63;100.00
9421;BME280;4749;51.398;5.466;2023-02-08T00:09:10;103682.78;;;-0.62;100.00
9421;BME280;4749;51.398;5.466;2023-02-08T00:11:40;103674.63;;;-0.67;100.00
9421;BME280;4749;51.398;5.466;2023-02-08T00:14:11;103681.63;;;-0.66;100.00
9421;BME280;4749;51.398;5.466;2023-02-08T00:16:38;103683.13;;;-0.68;100.00
9421;BME280;4749;51.398;5.466;2023-02-08T00:19:06;103675.09;;;-0.71;100.00
9421;BME280;4749;51.398;5.466;2023-02-08T00:21:33;103676.13;;;-0.69;100.00
9421;BME280;4749;51.398;5.466;2023-02-08T00:24:01;103676.91;;;-0.70;100.00
9421;BME280;4749;51.398;5.466;2023-02-08T00:26:28;103672.50;;;-0.71;100.00
9421;BME280;4749;51.398;5.466;2023-02-08T00:28:56;103662.69;;;-0.75;100.00
9421;BME280;4749;51.398;5.466;2023-02-08T00:31:24;103667.06;;;-0.74;100.00
9421;BME280;4749;51.398;5.466;2023-02-08T00:33:54;103668.56;;;-0.76;100.00
9421;BME280;4749;51.398;5.466;2023-02-08T00:36:21;103655.38;;;-0.79;100.00
9421;BME280;4749;51.398;5.466;2023-02-08T00:38:48;103664.69;;;-0.81;100.00
9421;BME280;4749;51.398;5.466;2023-02-08T00:41:16;103668.94;;;-0.81;100.00
9421;BME280;4749;51.398;5.466;2023-02-08T00:43:44;103665.31;;;-0.83;100.00
9421;BME280;4749;51.398;5.466;2023-02-08T00:46:11;103667.00;;;-0.84;100.00
9421;BME280;4749;51.398;5.466;2023-02-08T00:48:39;103664.22;;;-0.86;100.00
9421;BME280;4749;51.398;5.466;2023-02-08T00:51:12;103663.19;;;-0.88;100.00
9421;BME280;4749;51.398;5.466;2023-02-08T00:53:46;103663.81;;;-0.90;100.00
9421;BME280;4749;51.398;5.466;2023-02-08T00:56:22;103657.75;;;-0.91;100.00
9421;BME280;4749;51.398;5.466;2023-02-08T00:59:12;103655.75;;;-0.93;100.00
9421;BME280;4749;51.398;5.466;2023-02-08T01:02:18;103664.16;;;-0.96;100.00
9421;BME280;4749;51.398;5.466;2023-02-08T01:10:34;103666.91;;;-1.03;100.00
9421;BME280;4749;51.398;5.466;2023-02-08T01:14:18;103659.66;;;-1.07;100.00
9421;BME280;4749;51.398;5.466;2023-02-08T01:31:26;103644.13;;;-1.34;100.00
9421;BME280;4749;51.398;5.466;2023-02-08T02:05:02;103643.09;;;-1.45;100.00
9421;BME280;4749;51.398;5.466;2023-02-08T02:07:30;103652.66;;;-1.44;100.00
9421;BME280;4749;51.398;5.466;2023-02-08T02:10:22;103642.50;;;-1.43;100.00
9421;BME280;4749;51.398;5.466;2023-02-08T02:12:51;103645.66;;;-1.45;100.00
9421;BME280;4749;51.398;5.466;2023-02-08T02:15:20;103646.56;;;-1.45;100.00
9421;BME280;4749;51.398;5.466;2023-02-08T02:17:48;103635.34;;;-1.45;100.00
9421;BME280;4749;51.398;5.466;2023-02-08T02:23:55;103640.50;;;-1.45;100.00
9421;BME280;4749;51.398;5.466;2023-02-08T02:33:12;103634.94;;;-1.50;100.00
9421;BME280;4749;51.398;5.466;2023-02-08T02:38:36;103640.84;;;-1.51;100.00
9421;BME280;4749;51.398;5.466;2023-02-08T02:45:19;103639.19;;;-1.50;100.00
9421;BME280;4749;51.398;5.466;2023-02-08T02:50:44;103636.41;;;-1.52;100.00
9421;BME280;4749;51.398;5.466;2023-02-08T02:56:07;103635.22;;;-1.55;100.00
9421;BME280;4749;51.398;5.466;2023-02-08T02:58:37;103638.59;;;-1.56;100.00
9421;BME280;4749;51.398;5.466;2023-02-08T03:01:06;103641.78;;;-1.59;100.00
9421;BME280;4749;51.398;5.466;2023-02-08T03:03:34;103650.44;;;-1.58;100.00
9421;BME280;4749;51.398;5.466;2023-02-08T03:12:03;103638.59;;;-1.56;100.00
9421;BME280;4749;51.398;5.466;2023-02-08T03:20:42;103634.63;;;-1.61;100.00
9421;BME280;4749;51.398;5.466;2023-02-08T03:26:12;103634.22;;;-1.66;100.00
9421;BME280;4749;51.398;5.466;2023-02-08T03:29:21;103632.41;;;-1.67;100.00
9421;BME280;4749;51.398;5.466;2023-02-08T03:31:59;103633.91;;;-1.69;100.00
9421;BME280;4749;51.398;5.466;2023-02-08T03:34:55;103633.75;;;-1.71;100.00
9421;BME280;4749;51.398;5.466;2023-02-08T03:37:53;103631.03;;;-1.72;100.00
9421;BME280;4749;51.398;5.466;2023-02-08T03:40:34;103624.81;;;-1.74;100.00
9421;BME280;4749;51.398;5.466;2023-02-08T03:43:12;103627.25;;;-1.76;100.00
9421;BME280;4749;51.398;5.466;2023-02-08T03:45:52;103634.81;;;-1.77;100.00
9421;BME280;4749;51.398;5.466;2023-02-08T03:48:22;103632.09;;;-1.79;100.00
9421;BME280;4749;51.398;5.466;2023-02-08T03:50:52;103626.81;;;-1.80;100.00
9421;BME280;4749;51.398;5.466;2023-02-08T03:53:22;103628.47;;;-1.81;100.00
9421;BME280;4749;51.398;5.466;2023-02-08T03:55:57;103621.34;;;-1.83;100.00
9421;BME280;4749;51.398;5.466;2023-02-08T03:58:33;103630.00;;;-1.83;100.00
9421;BME280;4749;51.398;5.466;2023-02-08T04:01:12;103634.25;;;-1.83;100.00
9421;BME280;4749;51.398;5.466;2023-02-08T04:03:42;103647.91;;;-1.84;100.00
9421;BME280;4749;51.398;5.466;2023-02-08T04:06:11;103635.59;;;-1.87;100.00
9421;BME280;4749;51.398;5.466;2023-02-08T04:08:38;103648.66;;;-1.85;100.00
9421;BME280;4749;51.398;5.466;2023-02-08T04:11:08;103638.03;;;-1.88;100.00
9421;BME280;4749;51.398;5.466;2023-02-08T04:13:36;103636.22;;;-1.89;100.00
9421;BME280;4749;51.398;5.466;2023-02-08T04:16:04;103630.78;;;-1.92;100.00
9421;BME280;4749;51.398;5.466;2023-02-08T04:18:31;103633.38;;;-1.92;100.00
9421;BME280;4749;51.398;5.466;2023-02-08T04:20:59;103632.59;;;-1.91;100.00
9421;BME280;4749;51.398;5.466;2023-02-08T04:23:26;103638.53;;;-1.92;100.00
9421;BME280;4749;51.398;5.466;2023-02-08T04:25:53;103626.34;;;-1.93;100.00
9421;BME280;4749;51.398;5.466;2023-02-08T04:28:21;103624.41;;;-1.96;100.00
9421;BME280;4749;51.398;5.466;2023-02-08T04:30:48;103631.53;;;-1.93;100.00
9421;BME280;4749;51.398;5.466;2023-02-08T04:33:16;103626.97;;;-1.96;100.00
9421;BME280;4749;51.398;5.466;2023-02-08T04:35:44;103630.47;;;-1.95;100.00
9421;BME280;4749;51.398;5.466;2023-02-08T04:38:12;103632.91;;;-1.97;100.00
9421;BME280;4749;51.398;5.466;2023-02-08T04:40:39;103628.50;;;-1.98;100.00
9421;BME280;4749;51.398;5.466;2023-02-08T04:43:08;103628.50;;;-1.98;100.00
9421;BME280;4749;51.398;5.466;2023-02-08T04:45:39;103625.16;;;-1.97;100.00
9421;BME280;4749;51.398;5.466;2023-02-08T04:48:06;103625.78;;;-2.00;100.00
9421;BME280;4749;51.398;5.466;2023-02-08T04:50:34;103623.22;;;-2.00;100.00
9421;BME280;4749;51.398;5.466;2023-02-08T04:53:02;103630.19;;;-1.99;100.00
9421;BME280;4749;51.398;5.466;2023-02-08T04:55:32;103625.47;;;-2.03;100.00
9421;BME280;4749;51.398;5.466;2023-02-08T04:58:00;103627.31;;;-2.02;100.00
9421;BME280;4749;51.398;5.466;2023-02-08T05:00:30;103623.66;;;-2.04;100.00
9421;BME280;4749;51.398;5.466;2023-02-08T05:02:58;103628.03;;;-2.03;100.00
9421;BME280;4749;51.398;5.466;2023-02-08T05:05:26;103626.22;;;-2.04;100.00
9421;BME280;4749;51.398;5.466;2023-02-08T05:07:54;103627.00;;;-2.05;100.00
9421;BME280;4749;51.398;5.466;2023-02-08T05:10:22;103624.56;;;-2.03;100.00
9421;BME280;4749;51.398;5.466;2023-02-08T05:12:50;103630.97;;;-2.08;100.00
9421;BME280;4749;51.398;5.466;2023-02-08T05:15:21;103634.59;;;-2.06;100.00
9421;BME280;4749;51.398;5.466;2023-02-08T05:17:49;103622.47;;;-2.07;100.00
9421;BME280;4749;51.398;5.466;2023-02-08T05:20:16;103623.97;;;-2.09;100.00
9421;BME280;4749;51.398;5.466;2023-02-08T05:22:44;103621.41;;;-2.09;100.00
9421;BME280;4749;51.398;5.466;2023-02-08T05:25:16;103634.28;;;-2.09;100.00
9421;BME280;4749;51.398;5.466;2023-02-08T05:27:44;103631.53;;;-2.11;100.00
9421;BME280;4749;51.398;5.466;2023-02-08T05:30:12;103632.63;;;-2.09;100.00
9421;BME280;4749;51.398;5.466;2023-02-08T05:32:40;103627.47;;;-2.09;100.00
9421;BME280;4749;51.398;5.466;2023-02-08T05:35:11;103632.44;;;-2.10;100.00
9421;BME280;4749;51.398;5.466;2023-02-08T05:37:43;103627.28;;;-2.10;100.00
9421;BME280;4749;51.398;5.466;2023-02-08T05:40:11;103621.41;;;-2.09;100.00
9421;BME280;4749;51.398;5.466;2023-02-08T05:49:18;103626.72;;;-2.16;100.00
9421;BME280;4749;51.398;5.466;2023-02-08T05:52:09;103633.53;;;-2.17;100.00
9421;BME280;4749;51.398;5.466;2023-02-08T05:55:28;103641.28;;;-2.17;100.00
9421;BME280;4749;51.398;5.466;2023-02-08T05:58:43;103635.03;;;-2.19;100.00
9421;BME280;4749;51.398;5.466;2023-02-08T06:02:12;103631.41;;;-2.21;100.00
9421;BME280;4749;51.398;5.466;2023-02-08T06:05:05;103630.63;;;-2.20;100.00
9421;BME280;4749;51.398;5.466;2023-02-08T06:12:00;103631.13;;;-2.24;100.00
9421;BME280;4749;51.398;5.466;2023-02-08T06:14:40;103618.09;;;-2.25;100.00
9421;BME280;4749;51.398;5.466;2023-02-08T06:17:18;103630.97;;;-2.25;100.00
9421;BME280;4749;51.398;5.466;2023-02-08T06:19:49;103633.53;;;-2.25;100.00
9421;BME280;4749;51.398;5.466;2023-02-08T06:22:20;103630.78;;;-2.27;100.00
9421;BME280;4749;51.398;5.466;2023-02-08T06:24:58;103628.22;;;-2.27;100.00
9421;BME280;4749;51.398;5.466;2023-02-08T06:28:04;103630.06;;;-2.26;100.00
9421;BME280;4749;51.398;5.466;2023-02-08T06:30:51;103620.19;;;-2.30;100.00
9421;BME280;4749;51.398;5.466;2023-02-08T06:33:26;103627.00;;;-2.31;100.00
9421;BME280;4749;51.398;5.466;2023-02-08T06:36:09;103627.00;;;-2.31;100.00
9421;BME280;4749;51.398;5.466;2023-02-08T06:38:52;103628.69;;;-2.31;100.00
9421;BME280;4749;51.398;5.466;2023-02-08T06:41:38;103622.75;;;-2.30;100.00
9421;BME280;4749;51.398;5.466;2023-02-08T06:44:06;103620.81;;;-2.33;100.00
9421;BME280;4749;51.398;5.466;2023-02-08T06:46:40;103617.31;;;-2.33;100.00
9421;BME280;4749;51.398;5.466;2023-02-08T06:50:09;103615.81;;;-2.31;100.00
9421;BME280;4749;51.398;5.466;2023-02-08T06:52:32;103609.88;;;-2.30;100.00
9421;BME280;4749;51.398;5.466;2023-02-08T06:55:03;103605.63;;;-2.30;100.00
9421;BME280;4749;51.398;5.466;2023-02-08T06:57:58;103610.94;;;-2.28;100.00
9421;BME280;4749;51.398;5.466;2023-02-08T07:00:43;103609.59;;;-2.24;100.00
9421;BME280;4749;51.398;5.466;2023-02-08T07:04:02;103621.25;;;-2.19;100.00
9421;BME280;4749;51.398;5.466;2023-02-08T07:07:15;103617.16;;;-2.17;100.00
9421;BME280;4749;51.398;5.466;2023-02-08T07:14:23;103609.25;;;-2.10;100.00
9421;BME280;4749;51.398;5.466;2023-02-08T07:34:10;103613.16;;;-1.88;100.00
9421;BME280;4749;51.398;5.466;2023-02-08T07:37:47;103620.59;;;-1.82;100.00
9421;BME280;4749;51.398;5.466;2023-02-08T07:49:15;103621.75;;;-1.61;100.00
9421;BME280;4749;51.398;5.466;2023-02-08T07:51:42;103627.50;;;-1.55;100.00
9421;BME280;4749;51.398;5.466;2023-02-08T07:54:11;103617.63;;;-1.51;100.00
9421;BME280;4749;51.398;5.466;2023-02-08T07:56:39;103614.84;;;-1.44;100.00
9421;BME280;4749;51.398;5.466;2023-02-08T07:59:06;103613.75;;;-1.37;100.00
9421;BME280;4749;51.398;5.466;2023-02-08T08:01:34;103617.69;;;-1.32;100.00
9421;BME280;4749;51.398;5.466;2023-02-08T08:04:01;103623.72;;;-1.23;100.00
9421;BME280;4749;51.398;5.466;2023-02-08T08:06:29;103621.09;;;-1.14;100.00
9421;BME280;4749;51.398;5.466;2023-02-08T08:08:56;103618.19;;;-1.08;100.00
9421;BME280;4749;51.398;5.466;2023-02-08T08:11:23;103617.06;;;-1.02;100.00
9421;BME280;4749;51.398;5.466;2023-02-08T08:13:50;103616.88;;;-0.95;100.00
9421;BME280;4749;51.398;5.466;2023-02-08T08:16:18;103606.34;;;-0.88;100.00
9421;BME280;4749;51.398;5.466;2023-02-08T08:18:46;103609.66;;;-0.80;100.00
9421;BME280;4749;51.398;5.466;2023-02-08T08:21:14;103612.03;;;-0.73;100.00
9421;BME280;4749;51.398;5.466;2023-02-08T08:23:43;103609.25;;;-0.66;100.00
9421;BME280;4749;51.398;5.466;2023-02-08T08:26:18;103611.91;;;-0.55;100.00
9421;BME280;4749;51.398;5.466;2023-02-08T08:28:47;103603.44;;;-0.44;100.00
9421;BME280;4749;51.398;5.466;2023-02-08T08:44:39;103595.72;;;0.04;100.00
9421;BME280;4749;51.398;5.466;2023-02-08T08:47:08;103594.47;;;0.09;100.00
9421;BME280;4749;51.398;5.466;2023-02-08T08:50:08;103597.97;;;0.19;100.00
9421;BME280;4749;51.398;5.466;2023-02-08T08:52:55;103603.19;;;0.30;100.00
9421;BME280;4749;51.398;5.466;2023-02-08T08:55:29;103597.25;;;0.41;100.00
9421;BME280;4749;51.398;5.466;2023-02-08T08:57:56;103599.50;;;0.56;100.00
9421;BME280;4749;51.398;5.466;2023-02-08T09:00:23;103590.72;;;0.65;100.00
9421;BME280;4749;51.398;5.466;2023-02-08T09:02:50;103590.50;;;0.72;100.00
9421;BME280;4749;51.398;5.466;2023-02-08T09:05:18;103584.41;;;0.81;100.00
9421;BME280;4749;51.398;5.466;2023-02-08T09:07:45;103576.41;;;0.89;100.00
9421;BME280;4749;51.398;5.466;2023-02-08T09:10:12;103576.94;;;0.95;100.00
9421;BME280;4749;51.398;5.466;2023-02-08T09:12:39;103580.28;;;1.04;100.00
9421;BME280;4749;51.398;5.466;2023-02-08T09:15:07;103582.63;;;1.11;100.00
9421;BME280;4749;51.398;5.466;2023-02-08T09:17:35;103576.25;;;1.18;100.00
9421;BME280;4749;51.398;5.466;2023-02-08T09:20:03;103590.00;;;1.27;100.00
9421;BME280;4749;51.398;5.466;2023-02-08T09:22:30;103582.59;;;1.31;100.00
9421;BME280;4749;51.398;5.466;2023-02-08T09:24:58;103577.28;;;1.40;100.00
9421;BME280;4749;51.398;5.466;2023-02-08T09:27:25;103575.31;;;1.48;100.00
9421;BME280;4749;51.398;5.466;2023-02-08T09:29:53;103571.69;;;1.56;100.00
9421;BME280;4749;51.398;5.466;2023-02-08T09:32:20;103571.28;;;1.61;100.00
9421;BME280;4749;51.398;5.466;2023-02-08T09:34:49;103576.31;;;1.70;100.00
9421;BME280;4749;51.398;5.466;2023-02-08T09:37:17;103579.56;;;1.78;100.00
9421;BME280;4749;51.398;5.466;2023-02-08T09:39:44;103579.13;;;1.83;100.00
9421;BME280;4749;51.398;5.466;2023-02-08T09:42:32;103585.97;;;1.93;100.00
9421;BME280;4749;51.398;5.466;2023-02-08T09:45:08;103589.19;;;2.01;100.00
9421;BME280;4749;51.398;5.466;2023-02-08T09:47:57;103590.59;;;2.07;100.00
9421;BME280;4749;51.398;5.466;2023-02-08T09:50:39;103598.09;;;2.14;100.00
9421;BME280;4749;51.398;5.466;2023-02-08T09:53:27;103595.72;;;2.17;100.00
9421;BME280;4749;51.398;5.466;2023-02-08T09:56:08;103595.34;;;2.23;100.00
9421;BME280;4749;51.398;5.466;2023-02-08T09:58:51;103602.03;;;2.31;100.00
9421;BME280;4749;51.398;5.466;2023-02-08T10:01:29;103608.75;;;2.39;100.00
9421;BME280;4749;51.398;5.466;2023-02-08T10:04:11;103610.94;;;2.45;100.00
9421;BME280;4749;51.398;5.466;2023-02-08T10:06:42;103605.44;;;2.52;100.00
9421;BME280;4749;51.398;5.466;2023-02-08T10:09:13;103606.03;;;2.60;100.00
9421;BME280;4749;51.398;5.466;2023-02-08T10:12:17;103615.50;;;2.69;100.00
9421;BME280;4749;51.398;5.466;2023-02-08T10:35:10;103606.97;;;3.27;100.00
9421;BME280;4749;51.398;5.466;2023-02-08T10:37:41;103602.13;;;3.32;100.00
9421;BME280;4749;51.398;5.466;2023-02-08T10:40:34;103614.03;;;3.40;100.00
9421;BME280;4749;51.398;5.466;2023-02-08T10:51:30;103614.72;;;3.61;100.00
9421;BME280;4749;51.398;5.466;2023-02-08T10:54:00;103607.28;;;3.65;100.00
9421;BME280;4749;51.398;5.466;2023-02-08T10:57:00;103612.84;;;3.70;100.00
9421;BME280;4749;51.398;5.466;2023-02-08T11:00:02;103606.16;;;3.74;100.00
9421;BME280;4749;51.398;5.466;2023-02-08T11:02:37;103609.06;;;3.78;100.00
9421;BME280;4749;51.398;5.466;2023-02-08T11:05:09;103607.63;;;3.82;100.00
9421;BME280;4749;51.398;5.466;2023-02-08T11:07:39;103606.94;;;3.84;100.00
9421;BME280;4749;51.398;5.466;2023-02-08T11:13:17;103599.00;;;3.94;100.00
9421;BME280;4749;51.398;5.466;2023-02-08T11:15:56;103600.25;;;4.00;100.00
9421;BME280;4749;51.398;5.466;2023-02-08T11:18:34;103592.81;;;4.04;100.00
9421;BME280;4749;51.398;5.466;2023-02-08T11:21:07;103587.00;;;4.08;100.00
9421;BME280;4749;51.398;5.466;2023-02-08T11:23:41;103583.84;;;4.12;100.00
9421;BME280;4749;51.398;5.466;2023-02-08T11:26:35;103592.78;;;4.16;100.00
9421;BME280;4749;51.398;5.466;2023-02-08T11:29:15;103585.31;;;4.20;100.00
9421;BME280;4749;51.398;5.466;2023-02-08T11:34:35;103572.25;;;4.32;100.00
9421;BME280;4749;51.398;5.466;2023-02-08T11:37:18;103569.19;;;4.38;100.00
9421;BME280;4749;51.398;5.466;2023-02-08T11:39:57;103557.97;;;4.39;100.00
9421;BME280;4749;51.398;5.466;2023-02-08T11:42:35;103561.69;;;4.42;100.00
9421;BME280;4749;51.398;5.466;2023-02-08T11:45:04;103554.06;;;4.45;100.00
9421;BME280;4749;51.398;5.466;2023-02-08T11:47:34;103548.28;;;4.49;100.00
9421;BME280;4749;51.398;5.466;2023-02-08T11:50:10;103539.78;;;4.52;100.00
9421;BME280;4749;51.398;5.466;2023-02-08T11:52:58;103546.22;;;4.57;100.00
9421;BME280;4749;51.398;5.466;2023-02-08T11:55:30;103534.41;;;4.62;100.00
9421;BME280;4749;51.398;5.466;2023-02-08T12:00:40;103540.16;;;4.70;100.00
9421;BME280;4749;51.398;5.466;2023-02-08T12:03:18;103527.25;;;4.71;100.00
9421;BME280;4749;51.398;5.466;2023-02-08T12:06:29;103527.75;;;4.79;100.00
9421;BME280;4749;51.398;5.466;2023-02-08T12:09:21;103530.78;;;4.85;100.00
9421;BME280;4749;51.398;5.466;2023-02-08T12:20:31;103516.91;;;4.98;100.00
9421;BME280;4749;51.398;5.466;2023-02-08T12:30:17;103505.56;;;5.11;100.00
9421;BME280;4749;51.398;5.466;2023-02-08T12:36:16;103503.91;;;5.24;100.00
9421;BME280;4749;51.398;5.466;2023-02-08T12:39:34;103496.38;;;5.29;100.00
9421;BME280;4749;51.398;5.466;2023-02-08T12:42:36;103499.19;;;5.32;100.00
9421;BME280;4749;51.398;5.466;2023-02-08T12:54:13;103482.22;;;5.52;100.00
9421;BME280;4749;51.398;5.466;2023-02-08T12:56:45;103477.09;;;5.53;100.00
9421;BME280;4749;51.398;5.466;2023-02-08T13:03:12;103478.81;;;5.66;100.00
9421;BME280;4749;51.398;5.466;2023-02-08T13:05:47;103470.38;;;5.70;100.00
9421;BME280;4749;51.398;5.466;2023-02-08T13:08:48;103466.16;;;5.72;100.00
9421;BME280;4749;51.398;5.466;2023-02-08T13:20:59;103438.72;;;5.92;100.00
9421;BME280;4749;51.398;5.466;2023-02-08T13:23:42;103431.28;;;5.98;100.00
9421;BME280;4749;51.398;5.466;2023-02-08T13:26:28;103415.97;;;6.04;100.00
9421;BME280;4749;51.398;5.466;2023-02-08T13:29:00;103418.88;;;6.09;100.00
9421;BME280;4749;51.398;5.466;2023-02-08T13:31:40;103413.16;;;6.14;100.00
9421;BME280;4749;51.398;5.466;2023-02-08T13:36:55;103412.81;;;6.23;100.00
9421;BME280;4749;51.398;5.466;2023-02-08T13:39:45;103409.56;;;6.27;100.00
9421;BME280;4749;51.398;5.466;2023-02-08T13:42:42;103404.50;;;6.30;100.00
9421;BME280;4749;51.398;5.466;2023-02-08T13:48:00;103407.25;;;6.32;100.00
9421;BME280;4749;51.398;5.466;2023-02-08T13:53:08;103392.72;;;6.37;100.00
9421;BME280;4749;51.398;5.466;2023-02-08T13:55:55;103395.63;;;6.41;100.00
9421;BME280;4749;51.398;5.466;2023-02-08T14:01:21;103382.81;;;6.46;100.00
9421;BME280;4749;51.398;5.466;2023-02-08T14:07:41;103387.59;;;6.53;100.00
9421;BME280;4749;51.398;5.466;2023-02-08T14:15:45;103382.91;;;6.62;100.00
9421;BME280;4749;51.398;5.466;2023-02-08T14:18:26;103386.63;;;6.66;100.00
9421;BME280;4749;51.398;5.466;2023-02-08T14:21:03;103384.03;;;6.66;100.00
9421;BME280;4749;51.398;5.466;2023-02-08T14:23:35;103389.34;;;6.67;100.00
9421;BME280;4749;51.398;5.466;2023-02-08T14:26:09;103391.22;;;6.70;100.00
9421;BME280;4749;51.398;5.466;2023-02-08T14:28:53;103385.25;;;6.72;100.00
9421;BME280;4749;51.398;5.466;2023-02-08T14:31:21;103381.03;;;6.74;100.00
9421;BME280;4749;51.398;5.466;2023-02-08T14:34:01;103373.19;;;6.74;100.00
9421;BME280;4749;51.398;5.466;2023-02-08T14:36:34;103369.69;;;6.74;100.00
9421;BME280;4749;51.398;5.466;2023-02-08T14:39:31;103370.59;;;6.74;100.00
9421;BME280;4749;51.398;5.466;2023-02-08T14:42:06;103369.78;;;6.75;100.00
9421;BME280;4749;51.398;5.466;2023-02-08T14:50:10;103352.91;;;6.70;100.00
9421;BME280;4749;51.398;5.466;2023-02-08T14:52:39;103347.59;;;6.69;99.80
9421;BME280;4749;51.398;5.466;2023-02-08T14:55:17;103339.81;;;6.70;98.62
9421;BME280;4749;51.398;5.466;2023-02-08T14:57:45;103349.59;;;6.73;98.29
9421;BME280;4749;51.398;5.466;2023-02-08T15:00:38;103351.28;;;6.72;96.32
9421;BME280;4749;51.398;5.466;2023-02-08T15:03:13;103354.69;;;6.71;96.57
9421;BME280;4749;51.398;5.466;2023-02-08T15:08:34;103350.84;;;6.65;96.92
9421;BME280;4749;51.398;5.466;2023-02-08T15:11:01;103343.00;;;6.65;95.63
9421;BME280;4749;51.398;5.466;2023-02-08T15:13:29;103338.41;;;6.61;95.47
9421;BME280;4749;51.398;5.466;2023-02-08T15:15:56;103330.38;;;6.58;95.18
9421;BME280;4749;51.398;5.466;2023-02-08T15:18:28;103332.81;;;6.55;94.75
9421;BME280;4749;51.398;5.466;2023-02-08T15:21:12;103330.84;;;6.51;94.03
9421;BME280;4749;51.398;5.466;2023-02-08T15:23:41;103324.50;;;6.47;94.34
9421;BME280;4749;51.398;5.466;2023-02-08T15:26:22;103317.31;;;6.43;94.10
9421;BME280;4749;51.398;5.466;2023-02-08T15:28:49;103316.25;;;6.39;92.36
9421;BME280;4749;51.398;5.466;2023-02-08T15:31:30;103318.13;;;6.42;89.56
9421;BME280;4749;51.398;5.466;2023-02-08T15:34:00;103320.81;;;6.43;90.04
9421;BME280;4749;51.398;5.466;2023-02-08T15:36:31;103319.03;;;6.42;87.16
9421;BME280;4749;51.398;5.466;2023-02-08T15:39:10;103315.69;;;6.45;86.50
9421;BME280;4749;51.398;5.466;2023-02-08T15:41:41;103310.28;;;6.42;86.14
9421;BME280;4749;51.398;5.466;2023-02-08T15:44:24;103307.47;;;6.39;84.26
9421;BME280;4749;51.398;5.466;2023-02-08T15:46:55;103299.47;;;6.36;84.59
9421;BME280;4749;51.398;5.466;2023-02-08T15:49:35;103304.22;;;6.28;84.41
9421;BME280;4749;51.398;5.466;2023-02-08T15:52:04;103301.25;;;6.22;84.37
9421;BME280;4749;51.398;5.466;2023-02-08T15:54:32;103296.59;;;6.16;84.30
9421;BME280;4749;51.398;5.466;2023-02-08T15:59:54;103290.53;;;6.03;83.71
9421;BME280;4749;51.398;5.466;2023-02-08T16:02:28;103287.66;;;5.98;83.57
9421;BME280;4749;51.398;5.466;2023-02-08T16:04:58;103281.97;;;5.90;83.30
9421;BME280;4749;51.398;5.466;2023-02-08T16:07:42;103276.25;;;5.83;82.92
9421;BME280;4749;51.398;5.466;2023-02-08T16:10:39;103267.84;;;5.74;82.95
9421;BME280;4749;51.398;5.466;2023-02-08T16:13:33;103267.47;;;5.68;83.03
9421;BME280;4749;51.398;5.466;2023-02-08T16:16:21;103260.06;;;5.60;83.84
9421;BME280;4749;51.398;5.466;2023-02-08T16:19:01;103265.53;;;5.50;84.40
9421;BME280;4749;51.398;5.466;2023-02-08T16:21:36;103252.75;;;5.40;85.40
9421;BME280;4749;51.398;5.466;2023-02-08T16:27:05;103254.00;;;5.19;86.63
9421;BME280;4749;51.398;5.466;2023-02-08T16:29:37;103249.00;;;5.08;88.21
9421;BME280;4749;51.398;5.466;2023-02-08T16:32:40;103256.16;;;4.98;88.40
9421;BME280;4749;51.398;5.466;2023-02-08T16:35:29;103252.84;;;4.87;90.44
9421;BME280;4749;51.398;5.466;2023-02-08T16:38:00;103247.03;;;4.78;91.91
9421;BME280;4749;51.398;5.466;2023-02-08T16:48:39;103239.03;;;4.35;96.17
9421;BME280;4749;51.398;5.466;2023-02-08T16:51:21;103227.91;;;4.24;97.09
9421;BME280;4749;51.398;5.466;2023-02-08T16:53:59;103223.81;;;4.15;97.83
9421;BME280;4749;51.398;5.466;2023-02-08T16:56:26;103232.91;;;4.08;98.75
9421;BME280;4749;51.398;5.466;2023-02-08T16:58:54;103228.97;;;4.02;99.24
9421;BME280;4749;51.398;5.466;2023-02-08T17:01:21;103216.34;;;3.94;99.86
9421;BME280;4749;51.398;5.466;2023-02-08T17:03:52;103223.97;;;3.91;100.00
9421;BME280;4749;51.398;5.466;2023-02-08T17:06:35;103222.72;;;3.86;100.00
9421;BME280;4749;51.398;5.466;2023-02-08T17:09:05;103215.44;;;3.81;100.00
9421;BME280;4749;51.398;5.466;2023-02-08T17:11:32;103218.63;;;3.77;100.00
9421;BME280;4749;51.398;5.466;2023-02-08T17:14:00;103219.13;;;3.71;100.00
9421;BME280;4749;51.398;5.466;2023-02-08T17:16:29;103216.09;;;3.65;100.00
9421;BME280;4749;51.398;5.466;2023-02-08T17:18:58;103205.25;;;3.59;100.00
9421;BME280;4749;51.398;5.466;2023-02-08T17:21:26;103201.56;;;3.55;100.00
9421;BME280;4749;51.398;5.466;2023-02-08T17:23:56;103203.03;;;3.52;100.00
9421;BME280;4749;51.398;5.466;2023-02-08T17:26:40;103202.63;;;3.46;100.00
9421;BME280;4749;51.398;5.466;2023-02-08T17:29:11;103193.50;;;3.39;100.00
9421;BME280;4749;51.398;5.466;2023-02-08T17:31:38;103195.66;;;3.33;100.00
9421;BME280;4749;51.398;5.466;2023-02-08T17:34:08;103183.81;;;3.25;100.00
9421;BME280;4749;51.398;5.466;2023-02-08T17:36:36;103185.97;;;3.19;100.00
9421;BME280;4749;51.398;5.466;2023-02-08T17:39:05;103187.47;;;3.15;100.00
9421;BME280;4749;51.398;5.466;2023-02-08T17:41:32;103187.84;;;3.08;100.00
9421;BME280;4749;51.398;5.466;2023-02-08T17:43:59;103179.59;;;3.02;100.00
9421;BME280;4749;51.398;5.466;2023-02-08T17:46:28;103168.66;;;2.94;100.00
9421;BME280;4749;51.398;5.466;2023-02-08T17:48:58;103174.47;;;2.90;100.00
9421;BME280;4749;51.398;5.466;2023-02-08T17:51:28;103167.13;;;2.85;100.00
9421;BME280;4749;51.398;5.466;2023-02-08T17:53:55;103168.28;;;2.76;100.00
9421;BME280;4749;51.398;5.466;2023-02-08T17:56:26;103161.75;;;2.70;100.00
9421;BME280;4749;51.398;5.466;2023-02-08T17:58:55;103163.13;;;2.65;100.00
9421;BME280;4749;51.398;5.466;2023-02-08T18:01:25;103165.38;;;2.60;100.00
9421;BME280;4749;51.398;5.466;2023-02-08T18:03:53;103170.25;;;2.56;100.00
9421;BME280;4749;51.398;5.466;2023-02-08T18:06:21;103159.50;;;2.51;100.00
9421;BME280;4749;51.398;5.466;2023-02-08T18:08:53;103167.00;;;2.46;100.00
9421;BME280;4749;51.398;5.466;2023-02-08T18:11:21;103169.25;;;2.42;100.00
9421;BME280;4749;51.398;5.466;2023-02-08T18:13:52;103160.88;;;2.34;100.00
9421;BME280;4749;51.398;5.466;2023-02-08T18:16:25;103163.97;;;2.29;100.00
9421;BME280;4749;51.398;5.466;2023-02-08T18:18:57;103167.00;;;2.23;100.00